createdAt,value
2022-08-14T00:01:10.006Z,100797.66
2022-08-14T00:03:40.643Z,100802.84
2022-08-14T00:06:25.442Z,100808.38
2022-08-14T00:08:58.975Z,100801.97
2022-08-14T00:11:28.785Z,100800.50
2022-08-14T00:13:58.825Z,100804.41
2022-08-14T00:16:41.027Z,100796.53
2022-08-14T00:19:19.095Z,100790.91
2022-08-14T00:21:48.021Z,100788.41
2022-08-14T00:24:28.210Z,100788.47
2022-08-14T00:26:57.096Z,100788.56
2022-08-14T00:29:25.349Z,100782.44
2022-08-14T00:31:55.210Z,100792.47
2022-08-14T00:34:36.489Z,100790.91
2022-08-14T00:37:05.695Z,100792.75
2022-08-14T00:39:32.942Z,100786.50
2022-08-14T00:41:59.668Z,100782.09
2022-08-14T00:44:32.699Z,100780.63
2022-08-14T00:47:06.090Z,100787.91
2022-08-14T00:49:42.813Z,100779.94
2022-08-14T00:52:14.045Z,100784.66
2022-08-14T00:54:44.498Z,100785.78
2022-08-14T00:57:12.245Z,100784.22
2022-08-14T00:59:39.561Z,100784.41
2022-08-14T01:02:09.474Z,100782.66
2022-08-14T01:04:37.912Z,100782.81
2022-08-14T01:07:21.462Z,100777.47
2022-08-14T01:09:58.833Z,100773.91
2022-08-14T01:12:29.746Z,100775.91
2022-08-14T01:14:59.131Z,100781.41
2022-08-14T01:17:49.907Z,100784.97
2022-08-14T01:20:39.733Z,100781.50
2022-08-14T01:23:10.431Z,100776.34
2022-08-14T01:25:44.070Z,100776.25
2022-08-14T01:28:34.188Z,100776.47
2022-08-14T01:30:59.558Z,100784.59
2022-08-14T01:33:29.281Z,100774.84
2022-08-14T01:36:03.443Z,100771.38
2022-08-14T01:38:37.548Z,100771.63
2022-08-14T01:41:11.984Z,100772.66
2022-08-14T01:43:56.245Z,100775.34
2022-08-14T01:46:24.912Z,100770.84
2022-08-14T01:48:52.229Z,100770.06
2022-08-14T01:51:22.932Z,100776.47
2022-08-14T01:53:56.399Z,100777.56
2022-08-14T01:56:37.363Z,100773.00
2022-08-14T01:59:09.907Z,100772.22
2022-08-14T02:01:37.888Z,100768.75
2022-08-14T02:04:40.856Z,100772.47
2022-08-14T02:06:55.621Z,100770.03
2022-08-14T02:09:22.818Z,100775.56
2022-08-14T02:11:54.670Z,100769.41
2022-08-14T02:14:31.572Z,100766.59
2022-08-14T02:17:00.346Z,100771.06
2022-08-14T02:19:28.975Z,100767.53
2022-08-14T02:22:03.164Z,100772.88
2022-08-14T02:24:39.263Z,100767.53
2022-08-14T02:28:24.968Z,100767.44
2022-08-14T02:29:59.958Z,100769.16
2022-08-14T02:32:36.377Z,100769.16
2022-08-14T02:35:13.925Z,100764.59
2022-08-14T02:37:48.063Z,100759.31
2022-08-14T02:40:16.500Z,100753.97
2022-08-14T02:42:55.190Z,100767.34
2022-08-14T02:45:32.967Z,100753.09
2022-08-14T02:48:10.176Z,100752.25
2022-08-14T02:50:53.711Z,100752.41
2022-08-14T02:53:20.356Z,100746.34
2022-08-14T02:55:47.076Z,100742.88
2022-08-14T02:58:29.160Z,100747.38
2022-08-14T03:00:58.958Z,100737.53
2022-08-14T03:03:26.045Z,100734.84
2022-08-14T03:05:54.380Z,100734.16
2022-08-14T03:08:22.310Z,100746.06
2022-08-14T03:10:50.145Z,100739.03
2022-08-14T03:13:21.391Z,100734.03
2022-08-14T03:15:56.110Z,100731.44
2022-08-14T03:18:31.258Z,100737.84
2022-08-14T03:21:07.839Z,100735.44
2022-08-14T03:23:37.886Z,100734.72
2022-08-14T03:26:08.774Z,100732.22
2022-08-14T03:28:42.170Z,100728.03
2022-08-14T03:31:13.087Z,100730.06
2022-08-14T03:33:41.237Z,100726.78
2022-08-14T03:37:38.095Z,100721.75
2022-08-14T03:39:14.094Z,100724.66
2022-08-14T03:41:47.920Z,100724.81
2022-08-14T03:45:20.111Z,100718.69
2022-08-14T03:47:03.126Z,100722.47
2022-08-14T03:49:30.209Z,100715.44
2022-08-14T03:52:07.788Z,100720.88
2022-08-14T03:54:52.448Z,100716.41
2022-08-14T03:57:20.278Z,100725.28
2022-08-14T03:59:49.490Z,100717.25
2022-08-14T04:02:32.601Z,100724.34
2022-08-14T04:05:12.004Z,100723.34
2022-08-14T04:07:41.535Z,100719.81
2022-08-14T04:10:32.069Z,100720.56
2022-08-14T04:13:03.525Z,100724.97
2022-08-14T04:15:30.992Z,100716.00
2022-08-14T04:17:59.007Z,100720.28
2022-08-14T04:20:27.396Z,100722.78
2022-08-14T04:22:54.698Z,100729.69
2022-08-14T04:25:22.776Z,100714.19
2022-08-14T04:28:03.469Z,100717.34
2022-08-14T04:30:33.058Z,100720.31
2022-08-14T04:33:10.935Z,100720.94
2022-08-14T04:35:55.987Z,100722.28
2022-08-14T04:38:43.381Z,100707.63
2022-08-14T04:41:32.413Z,100719.66
2022-08-14T04:43:59.386Z,100717.13
2022-08-14T04:46:55.572Z,100719.53
2022-08-14T04:49:15.391Z,100719.09
2022-08-14T04:51:55.527Z,100714.97
2022-08-14T04:54:26.897Z,100716.78
2022-08-14T04:56:55.059Z,100718.44
2022-08-14T04:59:23.654Z,100716.97
2022-08-14T05:01:55.180Z,100713.78
2022-08-14T05:04:25.164Z,100712.09
2022-08-14T05:06:54.932Z,100696.50
2022-08-14T05:09:29.399Z,100692.78
2022-08-14T05:12:00.686Z,100690.09
2022-08-14T05:14:53.728Z,100693.38
2022-08-14T05:17:31.992Z,100697.53
2022-08-14T05:21:08.634Z,100689.69
2022-08-14T05:22:59.865Z,100692.63
2022-08-14T05:25:30.977Z,100693.03
2022-08-14T05:28:14.157Z,100691.91
2022-08-14T05:30:43.698Z,100691.34
2022-08-14T05:33:12.789Z,100690.78
2022-08-14T05:35:42.482Z,100685.59
2022-08-14T05:38:22.436Z,100674.06
2022-08-14T05:40:58.158Z,100673.81
2022-08-14T05:43:24.907Z,100666.72
2022-08-14T05:46:10.642Z,100667.69
2022-08-14T05:48:43.245Z,100664.31
2022-08-14T05:51:10.568Z,100672.09
2022-08-14T05:53:37.378Z,100663.94
2022-08-14T05:56:09.543Z,100671.78
2022-08-14T05:58:41.340Z,100669.22
2022-08-14T06:01:09.605Z,100676.09
2022-08-14T06:03:37.114Z,100683.56
2022-08-14T06:06:07.356Z,100676.38
2022-08-14T06:08:41.075Z,100673.97
2022-08-14T06:11:08.675Z,100677.00
2022-08-14T06:13:45.012Z,100667.72
2022-08-14T06:16:15.086Z,100662.84
2022-08-14T06:18:47.384Z,100657.50
2022-08-14T06:21:15.932Z,100662.72
2022-08-14T06:23:44.429Z,100659.25
2022-08-14T06:26:15.619Z,100662.06
2022-08-14T06:28:45.633Z,100675.06
2022-08-14T06:31:12.456Z,100663.53
2022-08-14T06:35:02.497Z,100656.47
2022-08-14T06:36:26.650Z,100659.59
2022-08-14T06:38:53.886Z,100653.28
2022-08-14T06:41:52.680Z,100656.53
2022-08-14T06:44:09.645Z,100650.63
2022-08-14T06:46:37.226Z,100647.56
2022-08-14T06:49:04.797Z,100645.28
2022-08-14T06:51:38.910Z,100642.63
2022-08-14T06:54:11.537Z,100638.81
2022-08-14T06:56:39.557Z,100643.69
2022-08-14T06:59:19.628Z,100652.66
2022-08-14T07:02:05.569Z,100647.03
2022-08-14T07:04:58.479Z,100647.44
2022-08-14T07:07:25.329Z,100654.91
2022-08-14T07:09:55.529Z,100640.47
2022-08-14T07:12:52.176Z,100640.13
2022-08-14T07:15:09.666Z,100645.28
2022-08-14T07:17:47.241Z,100645.75
2022-08-14T07:20:31.126Z,100638.31
2022-08-14T07:23:07.308Z,100628.34
2022-08-14T07:25:37.941Z,100621.41
2022-08-14T07:28:20.648Z,100618.03
2022-08-14T07:30:51.038Z,100620.00
2022-08-14T07:33:24.623Z,100619.69
2022-08-14T07:35:58.399Z,100614.81
2022-08-14T07:38:33.704Z,100619.94
2022-08-14T07:41:02.887Z,100613.94
2022-08-14T07:43:29.937Z,100617.56
2022-08-14T07:45:56.749Z,100622.03
2022-08-14T07:48:24.977Z,100617.78
2022-08-14T07:50:52.901Z,100605.97
2022-08-14T07:53:22.429Z,100606.66
2022-08-14T07:56:08.935Z,100602.00
2022-08-14T07:58:38.998Z,100596.34
2022-08-14T08:01:19.214Z,100594.88
2022-08-14T08:03:56.895Z,100598.81
2022-08-14T08:06:27.560Z,100597.03
2022-08-14T08:08:58.751Z,100604.50
2022-08-14T08:11:27.650Z,100598.28
2022-08-14T08:14:10.335Z,100597.25
2022-08-14T08:16:38.356Z,100593.91
2022-08-14T08:19:12.628Z,100595.41
2022-08-14T08:21:43.794Z,100589.00
2022-08-14T08:24:12.512Z,100586.59
2022-08-14T08:26:45.499Z,100595.16
2022-08-14T08:29:20.175Z,100596.84
2022-08-14T08:31:55.162Z,100583.06
2022-08-14T08:34:23.632Z,100583.72
2022-08-14T08:36:52.588Z,100581.53
2022-08-14T08:39:23.057Z,100571.31
2022-08-14T08:41:53.191Z,100569.50
2022-08-14T08:44:32.678Z,100572.19
2022-08-14T08:47:06.194Z,100564.13
2022-08-14T08:49:52.886Z,100565.34
2022-08-14T08:52:31.214Z,100567.72
2022-08-14T08:55:00.871Z,100553.31
2022-08-14T08:57:34.969Z,100558.63
2022-08-14T09:00:02.177Z,100554.00
2022-08-14T09:02:29.493Z,100555.31
2022-08-14T09:05:02.705Z,100547.19
2022-08-14T09:07:30.598Z,100546.03
2022-08-14T09:10:00.080Z,100551.50
2022-08-14T09:12:32.120Z,100546.63
2022-08-14T09:15:01.337Z,100534.00
2022-08-14T09:17:28.061Z,100554.50
2022-08-14T09:19:55.267Z,100535.72
2022-08-14T09:22:36.152Z,100540.63
2022-08-14T09:25:07.136Z,100536.91
2022-08-14T09:27:35.354Z,100537.44
2022-08-14T09:30:02.068Z,100534.22
2022-08-14T09:33:10.822Z,100523.75
2022-08-14T09:36:07.969Z,100521.50
2022-08-14T09:38:47.778Z,100524.75
2022-08-14T09:42:21.827Z,100514.38
2022-08-14T09:44:33.734Z,100520.28
2022-08-14T09:47:00.735Z,100520.44
2022-08-14T09:49:40.024Z,100515.25
2022-08-14T09:52:33.567Z,100506.38
2022-08-14T09:55:01.145Z,100512.25
2022-08-14T09:57:31.006Z,100504.31
2022-08-14T09:59:58.979Z,100517.97
2022-08-14T10:02:27.828Z,100508.75
2022-08-14T10:05:08.659Z,100505.44
2022-08-14T10:07:53.711Z,100503.56
2022-08-14T10:10:34.382Z,100500.47
2022-08-14T10:13:03.459Z,100500.22
2022-08-14T10:15:33.240Z,100490.00
2022-08-14T10:18:13.265Z,100483.97
2022-08-14T10:20:53.286Z,100480.72
2022-08-14T10:23:23.251Z,100472.06
2022-08-14T10:25:52.968Z,100470.72
2022-08-14T10:28:39.220Z,100472.88
2022-08-14T10:31:25.447Z,100464.72
2022-08-14T10:34:00.923Z,100463.44
2022-08-14T10:36:37.273Z,100453.25
2022-08-14T10:39:28.189Z,100456.47
2022-08-14T10:42:18.178Z,100456.84
2022-08-14T10:44:49.257Z,100453.31
2022-08-14T10:47:41.004Z,100460.91
2022-08-14T10:50:07.744Z,100455.56
2022-08-14T10:52:42.226Z,100449.19
2022-08-14T10:55:15.284Z,100425.75
2022-08-14T10:57:52.454Z,100442.59
2022-08-14T11:00:30.166Z,100429.31
2022-08-14T11:03:07.903Z,100430.72
2022-08-14T11:05:43.146Z,100421.84
2022-08-14T11:08:12.724Z,100420.66
2022-08-14T11:10:46.657Z,100413.69
2022-08-14T11:13:23.915Z,100406.41
2022-08-14T11:15:51.374Z,100411.75
2022-08-14T11:18:32.497Z,100410.06
2022-08-14T11:21:08.417Z,100404.59
2022-08-14T11:23:39.690Z,100400.19
2022-08-14T11:26:08.727Z,100405.63
2022-08-14T11:28:47.211Z,100405.91
2022-08-14T11:31:19.960Z,100399.59
2022-08-14T11:33:54.220Z,100394.16
2022-08-14T11:36:24.422Z,100397.66
2022-08-14T11:39:33.360Z,100380.91
2022-08-14T11:42:57.421Z,100386.97
2022-08-14T11:44:56.682Z,100374.88
2022-08-14T11:47:26.590Z,100377.91
2022-08-14T11:50:13.338Z,100378.06
2022-08-14T11:52:40.643Z,100373.72
2022-08-14T11:55:12.807Z,100374.28
2022-08-14T11:57:40.609Z,100370.81
2022-08-14T12:00:19.506Z,100366.09
2022-08-14T12:03:03.280Z,100368.75
2022-08-14T12:05:36.798Z,100377.00
2022-08-14T12:08:12.062Z,100373.50
2022-08-14T12:10:43.309Z,100372.19
2022-08-14T12:13:19.130Z,100372.22
2022-08-14T12:15:57.114Z,100360.19
2022-08-14T12:18:35.228Z,100348.41
2022-08-14T12:21:11.001Z,100347.75
2022-08-14T12:23:47.362Z,100346.25
2022-08-14T12:26:39.651Z,100347.97
2022-08-14T12:29:09.215Z,100349.59
2022-08-14T12:31:46.797Z,100342.75
2022-08-14T12:34:20.531Z,100341.00
2022-08-14T12:36:49.831Z,100346.63
2022-08-14T12:39:20.916Z,100342.63
2022-08-14T12:41:57.322Z,100326.22
2022-08-14T12:44:32.155Z,100329.03
2022-08-14T12:47:09.574Z,100313.56
2022-08-14T12:49:53.408Z,100307.63
2022-08-14T12:52:54.135Z,100298.91
2022-08-14T12:55:32.624Z,100309.09
2022-08-14T12:58:28.754Z,100299.41
2022-08-14T13:01:17.305Z,100292.19
2022-08-14T13:03:48.278Z,100295.13
2022-08-14T13:06:19.260Z,100292.78
2022-08-14T13:08:52.864Z,100294.84
2022-08-14T13:11:20.543Z,100287.06
2022-08-14T13:13:53.873Z,100277.31
2022-08-14T13:16:33.721Z,100271.84
2022-08-14T13:19:09.787Z,100272.78
2022-08-14T13:21:58.313Z,100265.09
2022-08-14T13:24:27.800Z,100247.38
2022-08-14T13:26:56.909Z,100249.50
2022-08-14T13:29:28.228Z,100243.56
2022-08-14T13:31:58.337Z,100241.69
2022-08-14T13:34:27.494Z,100250.84
2022-08-14T13:36:59.011Z,100235.47
2022-08-14T13:39:36.422Z,100237.16
2022-08-14T13:42:13.238Z,100231.91
2022-08-14T13:44:42.809Z,100233.91
2022-08-14T13:47:11.224Z,100224.09
2022-08-14T13:49:40.333Z,100215.16
2022-08-14T13:52:52.867Z,100210.84
2022-08-14T13:55:13.500Z,100201.31
2022-08-14T13:57:49.891Z,100195.50
2022-08-14T14:00:35.819Z,100190.81
2022-08-14T14:03:23.793Z,100191.91
2022-08-14T14:05:54.245Z,100180.69
2022-08-14T14:08:43.277Z,100185.84
2022-08-14T14:11:10.244Z,100176.13
2022-08-14T14:13:44.673Z,100181.00
2022-08-14T14:16:15.112Z,100178.16
2022-08-14T14:18:48.911Z,100166.53
2022-08-14T14:21:21.869Z,100168.91
2022-08-14T14:23:48.937Z,100164.03
2022-08-14T14:26:23.179Z,100159.63
2022-08-14T14:28:54.839Z,100152.63
2022-08-14T14:31:30.263Z,100145.34
2022-08-14T14:34:07.289Z,100145.03
2022-08-14T14:36:41.624Z,100143.03
2022-08-14T14:39:10.530Z,100142.31
2022-08-14T14:41:44.345Z,100132.09
2022-08-14T14:44:13.654Z,100131.63
2022-08-14T14:46:50.650Z,100142.53
2022-08-14T14:49:21.666Z,100138.38
2022-08-14T14:51:51.585Z,100137.31
2022-08-14T14:54:31.616Z,100133.81
2022-08-14T14:57:04.997Z,100128.53
2022-08-14T14:59:37.376Z,100133.75
2022-08-14T15:02:08.113Z,100128.38
2022-08-14T15:04:38.036Z,100114.19
2022-08-14T15:07:06.111Z,100130.19
2022-08-14T15:09:34.214Z,100119.13
2022-08-14T15:12:02.614Z,100119.66
2022-08-14T15:14:55.949Z,100119.00
2022-08-14T15:17:25.250Z,100113.78
2022-08-14T15:19:56.391Z,100110.97
2022-08-14T15:22:25.074Z,100108.44
2022-08-14T15:24:52.098Z,100112.22
2022-08-14T15:27:21.486Z,100117.25
2022-08-14T15:29:53.688Z,100115.72
2022-08-14T15:32:23.223Z,100110.72
2022-08-14T15:34:51.640Z,100106.75
2022-08-14T15:37:22.744Z,100101.03
2022-08-14T15:39:52.686Z,100110.28
2022-08-14T15:42:23.002Z,100112.19
2022-08-14T15:44:58.385Z,100101.41
2022-08-14T15:47:29.996Z,100099.41
2022-08-14T15:50:00.217Z,100109.06
2022-08-14T15:52:32.880Z,100090.84
2022-08-14T15:55:13.055Z,100095.06
2022-08-14T15:57:51.290Z,100096.84
2022-08-14T16:00:49.207Z,100093.47
2022-08-14T16:03:18.086Z,100091.50
2022-08-14T16:05:52.054Z,100094.28
2022-08-14T16:08:29.093Z,100088.47
2022-08-14T16:11:03.077Z,100076.47
2022-08-14T16:13:39.724Z,100083.91
2022-08-14T16:16:35.070Z,100080.94
2022-08-14T16:19:10.240Z,100066.63
2022-08-14T16:21:40.009Z,100069.69
2022-08-14T16:24:27.793Z,100067.28
2022-08-14T16:27:00.677Z,100062.47
2022-08-14T16:29:30.536Z,100062.72
2022-08-14T16:32:01.713Z,100056.78
2022-08-14T16:34:44.654Z,100052.78
2022-08-14T16:37:21.411Z,100057.13
2022-08-14T16:39:49.682Z,100061.66
2022-08-14T16:43:02.757Z,100060.28
2022-08-14T16:45:10.244Z,100057.66
2022-08-14T16:47:38.001Z,100046.59
2022-08-14T16:50:09.445Z,100046.31
2022-08-14T16:52:44.797Z,100041.09
2022-08-14T16:55:22.436Z,100045.19
2022-08-14T16:57:58.610Z,100039.09
2022-08-14T17:00:44.084Z,100035.38
2022-08-14T17:03:13.006Z,100026.34
2022-08-14T17:05:43.471Z,100025.16
2022-08-14T17:08:41.501Z,100025.50
2022-08-14T17:11:10.919Z,100013.28
2022-08-14T17:13:58.371Z,100026.19
2022-08-14T17:16:35.779Z,100024.69
2022-08-14T17:19:05.473Z,100022.81
2022-08-14T17:21:37.326Z,100024.34
2022-08-14T17:24:55.947Z,100017.00
2022-08-14T17:29:56.281Z,100020.53
2022-08-14T17:32:29.768Z,100010.44
2022-08-14T17:35:12.419Z,100016.63
2022-08-14T17:37:46.192Z,100012.22
2022-08-14T17:40:19.868Z,100022.72
2022-08-14T17:42:51.634Z,100028.41
2022-08-14T17:45:46.650Z,100030.75
2022-08-14T17:49:16.094Z,100035.88
2022-08-14T17:51:23.224Z,100044.16
2022-08-14T17:53:52.709Z,100045.41
2022-08-14T17:56:20.771Z,100046.75
2022-08-14T17:58:49.352Z,100051.94
2022-08-14T18:01:17.557Z,100067.50
2022-08-14T18:03:53.640Z,100065.78
2022-08-14T18:06:40.261Z,100071.84
2022-08-14T18:09:24.947Z,100055.91
2022-08-14T18:11:55.605Z,100061.41
2022-08-14T18:14:32.705Z,100060.47
2022-08-14T18:17:10.685Z,100065.53
2022-08-14T18:19:41.615Z,100070.63
2022-08-14T18:22:31.155Z,100068.19
2022-08-14T18:24:57.731Z,100067.25
2022-08-14T18:27:32.583Z,100078.41
2022-08-14T18:30:00.022Z,100070.47
2022-08-14T18:32:32.781Z,100069.34
2022-08-14T18:35:02.614Z,100077.69
2022-08-14T18:37:42.284Z,100069.00
2022-08-14T18:40:23.005Z,100070.59
2022-08-14T18:43:03.231Z,100072.91
2022-08-14T18:45:41.519Z,100069.19
2022-08-14T18:48:19.755Z,100079.47
2022-08-14T18:50:52.495Z,100077.22
2022-08-14T18:53:24.417Z,100085.22
2022-08-14T18:55:59.976Z,100066.97
2022-08-14T18:58:34.318Z,100080.97
2022-08-14T19:01:02.302Z,100071.88
2022-08-14T19:03:36.354Z,100074.44
2022-08-14T19:06:06.253Z,100079.97
2022-08-14T19:08:40.461Z,100081.00
2022-08-14T19:11:39.709Z,100079.31
2022-08-14T19:14:07.521Z,100079.59
2022-08-14T19:16:43.117Z,100081.47
2022-08-14T19:19:18.308Z,100085.03
2022-08-14T19:21:56.829Z,100080.06
2022-08-14T19:24:43.873Z,100086.16
2022-08-14T19:27:26.507Z,100091.28
2022-08-14T19:30:20.353Z,100083.56
2022-08-14T19:32:57.107Z,100088.69
2022-08-14T19:35:48.503Z,100089.84
2022-08-14T19:38:49.481Z,100086.25
2022-08-14T19:41:22.060Z,100090.66
2022-08-14T19:43:56.479Z,100087.41
2022-08-14T19:46:39.721Z,100088.50
2022-08-14T19:49:21.348Z,100085.78
2022-08-14T19:51:49.263Z,100074.13
2022-08-14T19:54:16.398Z,100079.72
2022-08-14T19:56:45.629Z,100077.28
2022-08-14T19:59:20.445Z,100069.72
2022-08-14T20:01:52.615Z,100064.00
2022-08-14T20:04:47.727Z,100069.22
2022-08-14T20:07:59.371Z,100063.38
2022-08-14T20:11:06.627Z,100070.84
2022-08-14T20:13:23.651Z,100061.84
2022-08-14T20:15:51.349Z,100061.78
2022-08-14T20:18:49.526Z,100063.28
2022-08-14T20:21:12.684Z,100059.25
2022-08-14T20:23:41.064Z,100066.22
2022-08-14T20:26:30.671Z,100065.72
2022-08-14T20:28:57.805Z,100062.56
2022-08-14T20:31:25.669Z,100064.69
2022-08-14T20:34:06.486Z,100065.81
2022-08-14T20:36:40.654Z,100066.53
2022-08-14T20:39:15.369Z,100062.25
2022-08-14T20:41:51.518Z,100062.78
2022-08-14T20:44:43.228Z,100062.91
2022-08-14T20:47:19.129Z,100070.25
2022-08-14T20:49:46.055Z,100063.28
2022-08-14T20:52:19.115Z,100055.31
2022-08-14T20:54:51.014Z,100063.94
2022-08-14T20:57:19.492Z,100052.94
2022-08-14T20:59:52.899Z,100060.41
2022-08-14T21:02:38.895Z,100060.41
2022-08-14T21:05:19.514Z,100071.56
2022-08-14T21:07:50.553Z,100069.50
2022-08-14T21:10:33.681Z,100072.72
2022-08-14T21:13:26.661Z,100074.34
2022-08-14T21:15:56.717Z,100071.31
2022-08-14T21:18:28.895Z,100070.94
2022-08-14T21:20:57.785Z,100068.66
2022-08-14T21:23:24.932Z,100067.44
2022-08-14T21:25:59.760Z,100059.25
2022-08-14T21:28:30.618Z,100060.72
2022-08-14T21:31:07.291Z,100051.38
2022-08-14T21:33:35.963Z,100056.41
2022-08-14T21:36:07.843Z,100059.34
2022-08-14T21:38:36.553Z,100057.03
2022-08-14T21:41:41.163Z,100055.78
2022-08-14T21:44:17.551Z,100064.22
2022-08-14T21:46:49.824Z,100061.28
2022-08-14T21:49:22.830Z,100056.28
2022-08-14T21:51:59.955Z,100051.63
2022-08-14T21:54:49.602Z,100054.78
2022-08-14T21:57:53.438Z,100051.59
2022-08-14T22:00:30.356Z,100047.41
2022-08-14T22:03:02.481Z,100042.28
2022-08-14T22:05:29.746Z,100034.56
2022-08-14T22:07:57.011Z,100035.03
2022-08-14T22:10:24.537Z,100027.31
2022-08-14T22:13:00.386Z,100020.72
2022-08-14T22:15:29.843Z,100025.81
2022-08-14T22:17:58.252Z,100023.38
2022-08-14T22:20:28.772Z,100022.00
2022-08-14T22:22:57.206Z,100016.88
2022-08-14T22:25:33.479Z,100023.44
2022-08-14T22:28:05.919Z,100021.13
2022-08-14T22:30:38.982Z,100017.53
2022-08-14T22:33:13.296Z,100017.19
2022-08-14T22:35:40.867Z,100024.00
2022-08-14T22:38:37.371Z,100029.06
2022-08-14T22:41:21.197Z,100031.31
2022-08-14T22:43:43.982Z,100021.03
2022-08-14T22:46:16.603Z,100018.72
2022-08-14T22:48:51.249Z,100020.97
2022-08-14T22:51:21.133Z,100015.09
2022-08-14T22:53:52.613Z,100020.81
2022-08-14T22:56:22.312Z,100024.78
2022-08-14T22:58:57.946Z,100017.94
2022-08-14T23:01:56.004Z,100023.44
2022-08-14T23:04:34.272Z,100021.19
2022-08-14T23:07:22.125Z,100012.59
2022-08-14T23:09:56.699Z,100013.16
2022-08-14T23:12:29.283Z,100022.31
2022-08-14T23:15:02.571Z,100005.34
2022-08-14T23:17:39.233Z,100006.00
2022-08-14T23:20:19.279Z,99999.47
2022-08-14T23:22:48.134Z,100005.47
2022-08-14T23:25:15.601Z,99995.16
2022-08-14T23:28:04.876Z,99996.38
2022-08-14T23:30:31.457Z,99996.47
2022-08-14T23:33:07.615Z,99996.56
2022-08-14T23:35:36.017Z,100001.75
2022-08-14T23:38:02.950Z,100001.31
2022-08-14T23:40:30.391Z,99997.97
2022-08-14T23:43:09.580Z,100007.41
2022-08-14T23:45:39.424Z,100010.44
2022-08-14T23:48:09.995Z,100017.91
2022-08-14T23:50:47.119Z,100016.00
2022-08-14T23:53:48.684Z,100003.97
2022-08-14T23:56:32.043Z,100006.13
2022-08-14T23:59:01.077Z,100005.34
